sensor_id;sensor_type;location;lat;lon;timestamp;temperature;humidity
60909;DHT22;46780;48.128;-1.704;2023-02-15T00:00:06;10.00;62.90
60909;DHT22;46780;48.128;-1.704;2023-02-15T00:02:32;10.10;62.70
60909;DHT22;46780;48.128;-1.704;2023-02-15T00:04:58;10.00;62.50
60909;DHT22;46780;48.128;-1.704;2023-02-15T00:07:25;10.00;62.60
60909;DHT22;46780;48.128;-1.704;2023-02-15T00:09:51;10.00;62.50
60909;DHT22;46780;48.128;-1.704;2023-02-15T00:12:17;10.00;62.60
60909;DHT22;46780;48.128;-1.704;2023-02-15T00:14:44;9.90;62.50
60909;DHT22;46780;48.128;-1.704;2023-02-15T00:17:11;9.90;62.50
60909;DHT22;46780;48.128;-1.704;2023-02-15T00:19:37;9.90;62.50
60909;DHT22;46780;48.128;-1.704;2023-02-15T00:22:05;9.90;62.50
60909;DHT22;46780;48.128;-1.704;2023-02-15T00:24:32;9.90;62.50
60909;DHT22;46780;48.128;-1.704;2023-02-15T00:26:58;9.90;62.30
60909;DHT22;46780;48.128;-1.704;2023-02-15T00:29:24;9.90;62.20
60909;DHT22;46780;48.128;-1.704;2023-02-15T00:31:51;9.90;62.00
60909;DHT22;46780;48.128;-1.704;2023-02-15T00:34:18;9.90;61.90
60909;DHT22;46780;48.128;-1.704;2023-02-15T00:36:45;9.90;61.80
60909;DHT22;46780;48.128;-1.704;2023-02-15T00:39:11;9.80;61.70
60909;DHT22;46780;48.128;-1.704;2023-02-15T00:41:38;9.80;61.70
60909;DHT22;46780;48.128;-1.704;2023-02-15T00:44:06;9.90;61.60
60909;DHT22;46780;48.128;-1.704;2023-02-15T00:46:32;9.90;61.50
60909;DHT22;46780;48.128;-1.704;2023-02-15T00:49:00;9.80;61.40
60909;DHT22;46780;48.128;-1.704;2023-02-15T00:51:26;9.80;61.80
60909;DHT22;46780;48.128;-1.704;2023-02-15T00:53:53;9.80;61.50
60909;DHT22;46780;48.128;-1.704;2023-02-15T00:56:19;9.70;61.60
60909;DHT22;46780;48.128;-1.704;2023-02-15T00:58:45;9.70;61.50
60909;DHT22;46780;48.128;-1.704;2023-02-15T01:01:12;9.70;61.60
60909;DHT22;46780;48.128;-1.704;2023-02-15T01:03:39;9.70;61.60
60909;DHT22;46780;48.128;-1.704;2023-02-15T01:06:10;9.60;61.50
60909;DHT22;46780;48.128;-1.704;2023-02-15T01:08:36;9.60;61.60
60909;DHT22;46780;48.128;-1.704;2023-02-15T01:11:03;9.60;61.70
60909;DHT22;46780;48.128;-1.704;2023-02-15T01:13:29;9.60;61.70
60909;DHT22;46780;48.128;-1.704;2023-02-15T01:15:55;9.60;61.70
60909;DHT22;46780;48.128;-1.704;2023-02-15T01:18:22;9.60;61.60
60909;DHT22;46780;48.128;-1.704;2023-02-15T01:20:48;9.60;61.60
60909;DHT22;46780;48.128;-1.704;2023-02-15T01:23:16;9.60;61.60
60909;DHT22;46780;48.128;-1.704;2023-02-15T01:25:42;9.60;61.40
60909;DHT22;46780;48.128;-1.704;2023-02-15T01:28:08;9.60;61.40
60909;DHT22;46780;48.128;-1.704;2023-02-15T01:30:34;9.60;61.20
60909;DHT22;46780;48.128;-1.704;2023-02-15T01:33:00;9.60;61.10
60909;DHT22;46780;48.128;-1.704;2023-02-15T01:35:27;9.60;61.10
60909;DHT22;46780;48.128;-1.704;2023-02-15T01:37:53;9.60;61.00
60909;DHT22;46780;48.128;-1.704;2023-02-15T01:40:22;9.60;60.80
60909;DHT22;46780;48.128;-1.704;2023-02-15T01:42:49;9.60;60.80
60909;DHT22;46780;48.128;-1.704;2023-02-15T01:45:18;9.50;60.70
60909;DHT22;46780;48.128;-1.704;2023-02-15T01:47:45;9.60;60.70
60909;DHT22;46780;48.128;-1.704;2023-02-15T01:50:14;9.50;60.50
60909;DHT22;46780;48.128;-1.704;2023-02-15T01:52:42;9.50;60.30
60909;DHT22;46780;48.128;-1.704;2023-02-15T01:55:10;9.50;60.30
60909;DHT22;46780;48.128;-1.704;2023-02-15T01:57:38;9.50;60.30
60909;DHT22;46780;48.128;-1.704;2023-02-15T02:00:05;9.50;60.30
60909;DHT22;46780;48.128;-1.704;2023-02-15T02:02:32;9.50;60.20
60909;DHT22;46780;48.128;-1.704;2023-02-15T02:04:59;9.50;60.20
60909;DHT22;46780;48.128;-1.704;2023-02-15T02:07:26;9.50;60.20
60909;DHT22;46780;48.128;-1.704;2023-02-15T02:09:53;9.50;60.20
60909;DHT22;46780;48.128;-1.704;2023-02-15T02:12:19;9.40;60.20
60909;DHT22;46780;48.128;-1.704;2023-02-15T02:14:48;9.40;60.20
60909;DHT22;46780;48.128;-1.704;2023-02-15T02:17:17;9.40;60.30
60909;DHT22;46780;48.128;-1.704;2023-02-15T02:19:54;9.40;60.40
60909;DHT22;46780;48.128;-1.704;2023-02-15T02:25:18;9.30;60.70
60909;DHT22;46780;48.128;-1.704;2023-02-15T02:27:49;9.30;60.80
60909;DHT22;46780;48.128;-1.704;2023-02-15T02:33:09;9.30;61.10
60909;DHT22;46780;48.128;-1.704;2023-02-15T02:35:40;9.20;62.20
60909;DHT22;46780;48.128;-1.704;2023-02-15T02:38:10;9.20;61.50
60909;DHT22;46780;48.128;-1.704;2023-02-15T02:40:41;9.20;62.60
60909;DHT22;46780;48.128;-1.704;2023-02-15T02:43:14;9.20;61.80
60909;DHT22;46780;48.128;-1.704;2023-02-15T02:45:43;9.10;61.70
60909;DHT22;46780;48.128;-1.704;2023-02-15T02:48:12;9.10;61.80
60909;DHT22;46780;48.128;-1.704;2023-02-15T02:50:40;9.10;61.90
60909;DHT22;46780;48.128;-1.704;2023-02-15T02:53:08;9.10;61.90
60909;DHT22;46780;48.128;-1.704;2023-02-15T02:55:35;9.10;61.70
60909;DHT22;46780;48.128;-1.704;2023-02-15T02:58:05;9.10;61.80
60909;DHT22;46780;48.128;-1.704;2023-02-15T03:00:32;9.10;61.70
60909;DHT22;46780;48.128;-1.704;2023-02-15T03:03:01;9.10;61.90
60909;DHT22;46780;48.128;-1.704;2023-02-15T03:05:28;9.10;61.90
60909;DHT22;46780;48.128;-1.704;2023-02-15T03:07:56;9.10;61.90
60909;DHT22;46780;48.128;-1.704;2023-02-15T03:10:24;9.10;61.80
60909;DHT22;46780;48.128;-1.704;2023-02-15T03:12:50;9.10;61.60
60909;DHT22;46780;48.128;-1.704;2023-02-15T03:15:18;9.10;61.60
60909;DHT22;46780;48.128;-1.704;2023-02-15T03:17:47;9.10;61.60
60909;DHT22;46780;48.128;-1.704;2023-02-15T03:20:15;9.10;61.60
60909;DHT22;46780;48.128;-1.704;2023-02-15T03:22:45;9.00;61.70
60909;DHT22;46780;48.128;-1.704;2023-02-15T03:25:17;9.00;61.80
60909;DHT22;46780;48.128;-1.704;2023-02-15T03:27:45;8.90;62.00
60909;DHT22;46780;48.128;-1.704;2023-02-15T03:30:12;8.90;62.10
60909;DHT22;46780;48.128;-1.704;2023-02-15T03:32:39;8.90;62.40
60909;DHT22;46780;48.128;-1.704;2023-02-15T03:35:06;8.80;62.40
60909;DHT22;46780;48.128;-1.704;2023-02-15T03:37:34;8.80;62.50
60909;DHT22;46780;48.128;-1.704;2023-02-15T03:40:03;8.80;62.60
60909;DHT22;46780;48.128;-1.704;2023-02-15T03:42:33;8.80;62.60
60909;DHT22;46780;48.128;-1.704;2023-02-15T03:45:05;8.80;62.70
60909;DHT22;46780;48.128;-1.704;2023-02-15T03:47:33;8.80;62.70
60909;DHT22;46780;48.128;-1.704;2023-02-15T03:50:01;8.70;62.70
60909;DHT22;46780;48.128;-1.704;2023-02-15T03:52:29;8.70;62.80
60909;DHT22;46780;48.128;-1.704;2023-02-15T03:54:56;8.70;62.80
60909;DHT22;46780;48.128;-1.704;2023-02-15T03:57:23;8.70;62.80
60909;DHT22;46780;48.128;-1.704;2023-02-15T03:59:51;8.70;62.90
60909;DHT22;46780;48.128;-1.704;2023-02-15T04:02:19;8.70;62.80
60909;DHT22;46780;48.128;-1.704;2023-02-15T04:04:47;8.60;63.00
60909;DHT22;46780;48.128;-1.704;2023-02-15T04:07:13;8.60;63.20
60909;DHT22;46780;48.128;-1.704;2023-02-15T04:09:39;8.60;63.40
60909;DHT22;46780;48.128;-1.704;2023-02-15T04:12:06;8.60;63.60
60909;DHT22;46780;48.128;-1.704;2023-02-15T04:14:32;8.60;63.70
60909;DHT22;46780;48.128;-1.704;2023-02-15T04:17:00;8.50;63.80
60909;DHT22;46780;48.128;-1.704;2023-02-15T04:19:26;8.50;64.00
60909;DHT22;46780;48.128;-1.704;2023-02-15T04:21:52;8.40;64.10
60909;DHT22;46780;48.128;-1.704;2023-02-15T04:24:18;8.40;64.30
60909;DHT22;46780;48.128;-1.704;2023-02-15T04:26:44;8.40;64.30
60909;DHT22;46780;48.128;-1.704;2023-02-15T04:29:10;8.40;64.40
60909;DHT22;46780;48.128;-1.704;2023-02-15T04:31:36;8.40;64.50
60909;DHT22;46780;48.128;-1.704;2023-02-15T04:34:04;8.40;64.50
60909;DHT22;46780;48.128;-1.704;2023-02-15T04:36:30;8.30;64.40
60909;DHT22;46780;48.128;-1.704;2023-02-15T04:38:56;8.30;64.50
60909;DHT22;46780;48.128;-1.704;2023-02-15T04:41:22;8.30;64.50
60909;DHT22;46780;48.128;-1.704;2023-02-15T04:43:49;8.30;64.60
60909;DHT22;46780;48.128;-1.704;2023-02-15T04:46:15;8.30;64.60
60909;DHT22;46780;48.128;-1.704;2023-02-15T04:48:41;8.30;64.50
60909;DHT22;46780;48.128;-1.704;2023-02-15T04:51:08;8.30;64.40
60909;DHT22;46780;48.128;-1.704;2023-02-15T04:53:35;8.40;64.30
60909;DHT22;46780;48.128;-1.704;2023-02-15T04:56:01;8.40;64.20
60909;DHT22;46780;48.128;-1.704;2023-02-15T04:58:27;8.40;64.20
60909;DHT22;46780;48.128;-1.704;2023-02-15T05:00:54;8.40;64.20
60909;DHT22;46780;48.128;-1.704;2023-02-15T05:03:21;8.40;64.10
60909;DHT22;46780;48.128;-1.704;2023-02-15T05:05:47;8.40;64.20
60909;DHT22;46780;48.128;-1.704;2023-02-15T05:08:14;8.40;64.20
60909;DHT22;46780;48.128;-1.704;2023-02-15T05:10:40;8.30;64.20
60909;DHT22;46780;48.128;-1.704;2023-02-15T05:13:06;8.30;64.30
60909;DHT22;46780;48.128;-1.704;2023-02-15T05:15:33;8.20;64.30
60909;DHT22;46780;48.128;-1.704;2023-02-15T05:17:59;8.20;64.40
60909;DHT22;46780;48.128;-1.704;2023-02-15T05:20:25;8.20;64.50
60909;DHT22;46780;48.128;-1.704;2023-02-15T05:22:52;8.20;64.60
60909;DHT22;46780;48.128;-1.704;2023-02-15T05:25:20;8.10;64.50
60909;DHT22;46780;48.128;-1.704;2023-02-15T05:27:46;8.10;64.50
60909;DHT22;46780;48.128;-1.704;2023-02-15T05:30:13;8.10;64.40
60909;DHT22;46780;48.128;-1.704;2023-02-15T05:32:39;8.10;64.30
60909;DHT22;46780;48.128;-1.704;2023-02-15T05:35:05;8.10;64.20
60909;DHT22;46780;48.128;-1.704;2023-02-15T05:37:32;8.10;64.20
60909;DHT22;46780;48.128;-1.704;2023-02-15T05:39:58;8.20;64.10
60909;DHT22;46780;48.128;-1.704;2023-02-15T05:42:26;8.20;63.90
60909;DHT22;46780;48.128;-1.704;2023-02-15T05:44:52;8.20;63.80
60909;DHT22;46780;48.128;-1.704;2023-02-15T05:47:18;8.20;63.70
60909;DHT22;46780;48.128;-1.704;2023-02-15T05:49:44;8.20;63.50
60909;DHT22;46780;48.128;-1.704;2023-02-15T05:52:10;8.20;63.20
60909;DHT22;46780;48.128;-1.704;2023-02-15T05:54:36;8.20;63.00
60909;DHT22;46780;48.128;-1.704;2023-02-15T05:57:02;8.20;63.00
60909;DHT22;46780;48.128;-1.704;2023-02-15T05:59:30;8.20;62.90
60909;DHT22;46780;48.128;-1.704;2023-02-15T06:01:56;8.20;62.70
60909;DHT22;46780;48.128;-1.704;2023-02-15T06:04:22;8.30;62.80
60909;DHT22;46780;48.128;-1.704;2023-02-15T06:06:48;8.30;62.70
60909;DHT22;46780;48.128;-1.704;2023-02-15T06:09:15;8.30;62.60
60909;DHT22;46780;48.128;-1.704;2023-02-15T06:11:41;8.30;62.50
60909;DHT22;46780;48.128;-1.704;2023-02-15T06:14:07;8.30;62.50
60909;DHT22;46780;48.128;-1.704;2023-02-15T06:16:34;8.30;62.40
60909;DHT22;46780;48.128;-1.704;2023-02-15T06:19:01;8.30;62.50
60909;DHT22;46780;48.128;-1.704;2023-02-15T06:21:27;8.20;62.40
60909;DHT22;46780;48.128;-1.704;2023-02-15T06:23:53;8.20;62.50
60909;DHT22;46780;48.128;-1.704;2023-02-15T06:26:19;8.20;62.50
60909;DHT22;46780;48.128;-1.704;2023-02-15T06:28:46;8.20;62.60
60909;DHT22;46780;48.128;-1.704;2023-02-15T06:31:12;8.20;62.50
60909;DHT22;46780;48.128;-1.704;2023-02-15T06:33:39;8.20;62.40
60909;DHT22;46780;48.128;-1.704;2023-02-15T06:36:06;8.10;62.60
60909;DHT22;46780;48.128;-1.704;2023-02-15T06:38:32;8.10;62.80
60909;DHT22;46780;48.128;-1.704;2023-02-15T06:40:58;8.10;63.00
60909;DHT22;46780;48.128;-1.704;2023-02-15T06:43:24;8.10;63.10
60909;DHT22;46780;48.128;-1.704;2023-02-15T06:45:50;8.00;63.10
60909;DHT22;46780;48.128;-1.704;2023-02-15T06:48:17;8.00;63.20
60909;DHT22;46780;48.128;-1.704;2023-02-15T06:50:44;8.00;63.20
60909;DHT22;46780;48.128;-1.704;2023-02-15T06:53:11;8.00;63.40
60909;DHT22;46780;48.128;-1.704;2023-02-15T06:55:37;8.00;63.50
60909;DHT22;46780;48.128;-1.704;2023-02-15T06:58:03;7.90;63.50
60909;DHT22;46780;48.128;-1.704;2023-02-15T07:00:29;7.90;63.60
60909;DHT22;46780;48.128;-1.704;2023-02-15T07:02:56;7.90;63.70
60909;DHT22;46780;48.128;-1.704;2023-02-15T07:05:22;7.90;63.60
60909;DHT22;46780;48.128;-1.704;2023-02-15T07:07:50;7.90;63.60
60909;DHT22;46780;48.128;-1.704;2023-02-15T07:10:16;7.90;63.70
60909;DHT22;46780;48.128;-1.704;2023-02-15T07:12:42;7.90;63.80
60909;DHT22;46780;48.128;-1.704;2023-02-15T07:15:09;7.80;63.80
60909;DHT22;46780;48.128;-1.704;2023-02-15T07:17:35;7.80;64.30
60909;DHT22;46780;48.128;-1.704;2023-02-15T07:20:02;7.80;65.90
60909;DHT22;46780;48.128;-1.704;2023-02-15T07:22:28;7.80;66.70
60909;DHT22;46780;48.128;-1.704;2023-02-15T07:24:55;7.80;67.20
60909;DHT22;46780;48.128;-1.704;2023-02-15T07:27:22;7.80;66.50
60909;DHT22;46780;48.128;-1.704;2023-02-15T07:29:48;7.80;66.00
60909;DHT22;46780;48.128;-1.704;2023-02-15T07:32:14;7.70;65.50
60909;DHT22;46780;48.128;-1.704;2023-02-15T07:34:40;7.70;65.50
60909;DHT22;46780;48.128;-1.704;2023-02-15T07:37:06;7.70;65.50
60909;DHT22;46780;48.128;-1.704;2023-02-15T07:39:32;7.70;65.50
60909;DHT22;46780;48.128;-1.704;2023-02-15T07:42:00;7.70;65.60
60909;DHT22;46780;48.128;-1.704;2023-02-15T07:44:27;7.60;65.50
60909;DHT22;46780;48.128;-1.704;2023-02-15T07:46:53;7.70;65.50
60909;DHT22;46780;48.128;-1.704;2023-02-15T07:49:19;7.70;65.40
60909;DHT22;46780;48.128;-1.704;2023-02-15T07:51:45;7.70;65.30
60909;DHT22;46780;48.128;-1.704;2023-02-15T07:54:11;7.70;65.30
60909;DHT22;46780;48.128;-1.704;2023-02-15T07:56:37;7.70;65.20
60909;DHT22;46780;48.128;-1.704;2023-02-15T07:59:05;7.70;65.20
60909;DHT22;46780;48.128;-1.704;2023-02-15T08:01:32;7.80;65.40
60909;DHT22;46780;48.128;-1.704;2023-02-15T08:03:59;7.90;65.60
60909;DHT22;46780;48.128;-1.704;2023-02-15T08:06:26;8.00;65.50
60909;DHT22;46780;48.128;-1.704;2023-02-15T08:08:52;8.30;65.10
60909;DHT22;46780;48.128;-1.704;2023-02-15T08:11:19;8.60;65.10
60909;DHT22;46780;48.128;-1.704;2023-02-15T08:13:47;8.90;63.10
60909;DHT22;46780;48.128;-1.704;2023-02-15T08:16:15;9.30;61.00
60909;DHT22;46780;48.128;-1.704;2023-02-15T08:18:41;9.70;59.10
60909;DHT22;46780;48.128;-1.704;2023-02-15T08:21:08;10.00;57.30
60909;DHT22;46780;48.128;-1.704;2023-02-15T08:23:34;10.40;56.20
60909;DHT22;46780;48.128;-1.704;2023-02-15T08:26:00;10.70;55.00
60909;DHT22;46780;48.128;-1.704;2023-02-15T08:28:26;11.00;53.90
60909;DHT22;46780;48.128;-1.704;2023-02-15T08:30:52;11.40;52.70
60909;DHT22;46780;48.128;-1.704;2023-02-15T08:33:20;11.70;51.60
60909;DHT22;46780;48.128;-1.704;2023-02-15T08:35:46;12.10;50.70
60909;DHT22;46780;48.128;-1.704;2023-02-15T08:38:13;12.50;49.80
60909;DHT22;46780;48.128;-1.704;2023-02-15T08:40:39;12.90;48.90
60909;DHT22;46780;48.128;-1.704;2023-02-15T08:43:05;13.40;47.70
60909;DHT22;46780;48.128;-1.704;2023-02-15T08:45:31;13.80;46.70
60909;DHT22;46780;48.128;-1.704;2023-02-15T08:47:58;14.30;45.70
60909;DHT22;46780;48.128;-1.704;2023-02-15T08:50:25;14.60;44.50
60909;DHT22;46780;48.128;-1.704;2023-02-15T08:52:51;14.90;43.60
60909;DHT22;46780;48.128;-1.704;2023-02-15T08:55:17;15.20;43.10
60909;DHT22;46780;48.128;-1.704;2023-02-15T08:57:44;15.50;42.50
60909;DHT22;46780;48.128;-1.704;2023-02-15T09:00:10;15.80;41.30
60909;DHT22;46780;48.128;-1.704;2023-02-15T09:02:36;16.00;41.00
60909;DHT22;46780;48.128;-1.704;2023-02-15T09:05:03;16.10;40.70
60909;DHT22;46780;48.128;-1.704;2023-02-15T09:07:30;16.10;40.10
60909;DHT22;46780;48.128;-1.704;2023-02-15T09:09:57;16.20;40.20
60909;DHT22;46780;48.128;-1.704;2023-02-15T09:12:23;16.40;40.00
60909;DHT22;46780;48.128;-1.704;2023-02-15T09:14:49;16.60;39.50
60909;DHT22;46780;48.128;-1.704;2023-02-15T09:17:15;16.80;39.00
60909;DHT22;46780;48.128;-1.704;2023-02-15T09:19:42;17.00;38.80
60909;DHT22;46780;48.128;-1.704;2023-02-15T09:22:08;17.20;38.50
60909;DHT22;46780;48.128;-1.704;2023-02-15T09:24:35;17.40;38.00
60909;DHT22;46780;48.128;-1.704;2023-02-15T09:27:02;17.50;37.90
60909;DHT22;46780;48.128;-1.704;2023-02-15T09:29:28;17.50;38.10
60909;DHT22;46780;48.128;-1.704;2023-02-15T09:31:54;17.70;37.70
60909;DHT22;46780;48.128;-1.704;2023-02-15T09:34:21;17.80;38.00
60909;DHT22;46780;48.128;-1.704;2023-02-15T09:36:48;17.80;37.80
60909;DHT22;46780;48.128;-1.704;2023-02-15T09:39:15;17.80;37.90
60909;DHT22;46780;48.128;-1.704;2023-02-15T09:41:50;17.90;37.60
60909;DHT22;46780;48.128;-1.704;2023-02-15T09:44:22;17.90;37.50
60909;DHT22;46780;48.128;-1.704;2023-02-15T09:47:07;17.90;37.70
60909;DHT22;46780;48.128;-1.704;2023-02-15T09:49:38;18.00;37.90
60909;DHT22;46780;48.128;-1.704;2023-02-15T09:52:18;18.10;37.50
60909;DHT22;46780;48.128;-1.704;2023-02-15T09:54:50;18.10;37.40
60909;DHT22;46780;48.128;-1.704;2023-02-15T09:57:22;18.00;37.30
60909;DHT22;46780;48.128;-1.704;2023-02-15T09:59:55;17.90;37.60
60909;DHT22;46780;48.128;-1.704;2023-02-15T10:02:29;17.80;37.90
60909;DHT22;46780;48.128;-1.704;2023-02-15T10:05:01;17.80;38.40
60909;DHT22;46780;48.128;-1.704;2023-02-15T10:07:44;17.70;38.60
60909;DHT22;46780;48.128;-1.704;2023-02-15T10:10:17;17.70;38.90
60909;DHT22;46780;48.128;-1.704;2023-02-15T10:12:54;17.60;39.10
60909;DHT22;46780;48.128;-1.704;2023-02-15T10:15:24;17.70;39.30
60909;DHT22;46780;48.128;-1.704;2023-02-15T10:17:56;17.80;39.30
60909;DHT22;46780;48.128;-1.704;2023-02-15T10:20:27;18.00;39.40
60909;DHT22;46780;48.128;-1.704;2023-02-15T10:23:02;18.00;38.90
60909;DHT22;46780;48.128;-1.704;2023-02-15T10:25:32;18.00;39.10
60909;DHT22;46780;48.128;-1.704;2023-02-15T10:28:04;18.00;39.10
60909;DHT22;46780;48.128;-1.704;2023-02-15T10:30:31;18.00;39.20
60909;DHT22;46780;48.128;-1.704;2023-02-15T10:33:00;18.00;39.30
60909;DHT22;46780;48.128;-1.704;2023-02-15T10:35:29;18.00;39.70
60909;DHT22;46780;48.128;-1.704;2023-02-15T10:37:59;18.30;40.00
60909;DHT22;46780;48.128;-1.704;2023-02-15T10:40:32;18.60;39.80
60909;DHT22;46780;48.128;-1.704;2023-02-15T10:43:05;18.90;39.10
60909;DHT22;46780;48.128;-1.704;2023-02-15T10:45:35;19.00;38.70
60909;DHT22;46780;48.128;-1.704;2023-02-15T10:48:16;19.10;38.60
60909;DHT22;46780;48.128;-1.704;2023-02-15T10:50:48;19.10;38.50
60909;DHT22;46780;48.128;-1.704;2023-02-15T10:53:23;19.10;38.90
60909;DHT22;46780;48.128;-1.704;2023-02-15T10:55:54;19.30;39.20
60909;DHT22;46780;48.128;-1.704;2023-02-15T10:58:27;19.60;39.10
60909;DHT22;46780;48.128;-1.704;2023-02-15T11:00:56;19.80;38.60
60909;DHT22;46780;48.128;-1.704;2023-02-15T11:03:31;19.90;38.70
60909;DHT22;46780;48.128;-1.704;2023-02-15T11:06:01;20.10;38.20
60909;DHT22;46780;48.128;-1.704;2023-02-15T11:08:31;20.40;38.30
60909;DHT22;46780;48.128;-1.704;2023-02-15T11:10:58;20.50;37.40
60909;DHT22;46780;48.128;-1.704;2023-02-15T11:13:28;20.50;37.10
60909;DHT22;46780;48.128;-1.704;2023-02-15T11:15:58;20.50;37.20
60909;DHT22;46780;48.128;-1.704;2023-02-15T11:18:27;20.70;37.30
60909;DHT22;46780;48.128;-1.704;2023-02-15T11:20:58;20.90;37.20
60909;DHT22;46780;48.128;-1.704;2023-02-15T11:23:25;21.00;36.90
60909;DHT22;46780;48.128;-1.704;2023-02-15T11:25:54;21.40;36.90
60909;DHT22;46780;48.128;-1.704;2023-02-15T11:28:23;21.60;36.40
60909;DHT22;46780;48.128;-1.704;2023-02-15T11:30:53;21.60;36.10
60909;DHT22;46780;48.128;-1.704;2023-02-15T11:33:21;21.60;36.20
60909;DHT22;46780;48.128;-1.704;2023-02-15T11:35:49;21.60;36.10
60909;DHT22;46780;48.128;-1.704;2023-02-15T11:38:17;21.70;36.40
60909;DHT22;46780;48.128;-1.704;2023-02-15T11:40:46;21.80;36.10
60909;DHT22;46780;48.128;-1.704;2023-02-15T11:43:14;21.90;36.40
60909;DHT22;46780;48.128;-1.704;2023-02-15T11:45:42;22.10;36.30
60909;DHT22;46780;48.128;-1.704;2023-02-15T11:48:11;22.40;36.00
60909;DHT22;46780;48.128;-1.704;2023-02-15T11:50:38;22.70;35.90
60909;DHT22;46780;48.128;-1.704;2023-02-15T11:53:06;22.80;35.50
60909;DHT22;46780;48.128;-1.704;2023-02-15T11:55:33;23.00;35.10
60909;DHT22;46780;48.128;-1.704;2023-02-15T11:58:01;23.20;34.80
60909;DHT22;46780;48.128;-1.704;2023-02-15T12:00:32;23.40;34.70
60909;DHT22;46780;48.128;-1.704;2023-02-15T12:03:00;23.50;34.50
60909;DHT22;46780;48.128;-1.704;2023-02-15T12:05:29;23.80;34.20
60909;DHT22;46780;48.128;-1.704;2023-02-15T12:07:57;23.80;33.70
60909;DHT22;46780;48.128;-1.704;2023-02-15T12:10:27;23.70;34.10
60909;DHT22;46780;48.128;-1.704;2023-02-15T12:13:08;23.80;34.00
60909;DHT22;46780;48.128;-1.704;2023-02-15T12:15:34;24.00;34.00
60909;DHT22;46780;48.128;-1.704;2023-02-15T12:18:01;24.00;33.60
60909;DHT22;46780;48.128;-1.704;2023-02-15T12:20:30;24.10;33.70
60909;DHT22;46780;48.128;-1.704;2023-02-15T12:22:59;24.20;33.60
60909;DHT22;46780;48.128;-1.704;2023-02-15T12:25:26;24.40;33.00
60909;DHT22;46780;48.128;-1.704;2023-02-15T12:27:52;24.40;32.80
60909;DHT22;46780;48.128;-1.704;2023-02-15T12:30:19;24.30;33.00
60909;DHT22;46780;48.128;-1.704;2023-02-15T12:32:48;24.40;33.20
60909;DHT22;46780;48.128;-1.704;2023-02-15T12:35:16;24.40;33.00
60909;DHT22;46780;48.128;-1.704;2023-02-15T12:37:52;24.40;33.20
60909;DHT22;46780;48.128;-1.704;2023-02-15T12:40:20;24.50;33.60
60909;DHT22;46780;48.128;-1.704;2023-02-15T12:42:47;24.70;33.40
60909;DHT22;46780;48.128;-1.704;2023-02-15T12:45:20;24.80;33.10
60909;DHT22;46780;48.128;-1.704;2023-02-15T12:47:46;25.00;32.90
60909;DHT22;46780;48.128;-1.704;2023-02-15T12:50:14;25.10;32.40
60909;DHT22;46780;48.128;-1.704;2023-02-15T12:52:41;25.10;32.50
60909;DHT22;46780;48.128;-1.704;2023-02-15T12:55:17;25.20;32.30
60909;DHT22;46780;48.128;-1.704;2023-02-15T12:57:44;25.20;32.50
60909;DHT22;46780;48.128;-1.704;2023-02-15T13:00:25;25.20;31.90
60909;DHT22;46780;48.128;-1.704;2023-02-15T13:02:52;24.90;32.30
60909;DHT22;46780;48.128;-1.704;2023-02-15T13:05:19;24.50;32.80
60909;DHT22;46780;48.128;-1.704;2023-02-15T13:07:48;24.40;33.20
60909;DHT22;46780;48.128;-1.704;2023-02-15T13:10:24;24.20;33.40
60909;DHT22;46780;48.128;-1.704;2023-02-15T13:12:51;24.20;33.70
60909;DHT22;46780;48.128;-1.704;2023-02-15T13:15:23;24.10;33.80
60909;DHT22;46780;48.128;-1.704;2023-02-15T13:17:50;24.10;34.00
60909;DHT22;46780;48.128;-1.704;2023-02-15T13:20:17;24.10;33.90
60909;DHT22;46780;48.128;-1.704;2023-02-15T13:22:44;24.20;34.10
60909;DHT22;46780;48.128;-1.704;2023-02-15T13:25:13;24.20;34.20
60909;DHT22;46780;48.128;-1.704;2023-02-15T13:27:41;24.40;33.80
60909;DHT22;46780;48.128;-1.704;2023-02-15T13:30:16;24.50;33.50
60909;DHT22;46780;48.128;-1.704;2023-02-15T13:32:43;24.50;33.70
60909;DHT22;46780;48.128;-1.704;2023-02-15T13:35:13;24.50;33.50
60909;DHT22;46780;48.128;-1.704;2023-02-15T13:37:45;24.60;33.60
60909;DHT22;46780;48.128;-1.704;2023-02-15T13:40:16;24.50;33.70
60909;DHT22;46780;48.128;-1.704;2023-02-15T13:42:46;24.70;33.50
60909;DHT22;46780;48.128;-1.704;2023-02-15T13:45:20;24.70;33.50
60909;DHT22;46780;48.128;-1.704;2023-02-15T13:47:48;24.70;32.90
60909;DHT22;46780;48.128;-1.704;2023-02-15T13:50:20;24.50;33.20
60909;DHT22;46780;48.128;-1.704;2023-02-15T13:52:53;24.40;33.20
60909;DHT22;46780;48.128;-1.704;2023-02-15T13:55:26;24.20;33.30
60909;DHT22;46780;48.128;-1.704;2023-02-15T13:58:01;24.10;33.90
60909;DHT22;46780;48.128;-1.704;2023-02-15T14:00:30;24.10;34.30
60909;DHT22;46780;48.128;-1.704;2023-02-15T14:03:05;24.00;34.00
60909;DHT22;46780;48.128;-1.704;2023-02-15T14:08:25;23.70;34.70
60909;DHT22;46780;48.128;-1.704;2023-02-15T14:10:54;23.60;34.90
60909;DHT22;46780;48.128;-1.704;2023-02-15T14:13:38;23.50;35.20
60909;DHT22;46780;48.128;-1.704;2023-02-15T14:16:09;23.50;35.70
60909;DHT22;46780;48.128;-1.704;2023-02-15T14:18:39;23.40;35.60
60909;DHT22;46780;48.128;-1.704;2023-02-15T14:21:09;23.20;36.00
60909;DHT22;46780;48.128;-1.704;2023-02-15T14:23:39;23.00;36.30
60909;DHT22;46780;48.128;-1.704;2023-02-15T14:26:09;22.90;36.30
60909;DHT22;46780;48.128;-1.704;2023-02-15T14:28:42;22.90;36.60
60909;DHT22;46780;48.128;-1.704;2023-02-15T14:31:11;22.90;36.60
60909;DHT22;46780;48.128;-1.704;2023-02-15T14:33:38;22.90;36.60
60909;DHT22;46780;48.128;-1.704;2023-02-15T14:36:06;22.90;37.10
60909;DHT22;46780;48.128;-1.704;2023-02-15T14:38:38;22.80;38.10
60909;DHT22;46780;48.128;-1.704;2023-02-15T14:41:09;22.60;37.50
60909;DHT22;46780;48.128;-1.704;2023-02-15T14:43:41;22.30;37.90
60909;DHT22;46780;48.128;-1.704;2023-02-15T14:46:12;22.20;38.40
60909;DHT22;46780;48.128;-1.704;2023-02-15T14:48:41;22.10;38.60
60909;DHT22;46780;48.128;-1.704;2023-02-15T14:51:09;21.80;38.80
60909;DHT22;46780;48.128;-1.704;2023-02-15T14:53:36;21.70;40.30
60909;DHT22;46780;48.128;-1.704;2023-02-15T14:56:12;21.50;39.60
60909;DHT22;46780;48.128;-1.704;2023-02-15T14:58:40;21.40;39.80
60909;DHT22;46780;48.128;-1.704;2023-02-15T15:01:25;21.20;39.90
60909;DHT22;46780;48.128;-1.704;2023-02-15T15:03:53;21.00;39.80
60909;DHT22;46780;48.128;-1.704;2023-02-15T15:06:23;20.90;40.60
60909;DHT22;46780;48.128;-1.704;2023-02-15T15:08:55;20.70;41.00
60909;DHT22;46780;48.128;-1.704;2023-02-15T15:11:37;20.60;41.40
60909;DHT22;46780;48.128;-1.704;2023-02-15T15:14:04;20.40;41.80
60909;DHT22;46780;48.128;-1.704;2023-02-15T15:16:45;20.30;42.20
60909;DHT22;46780;48.128;-1.704;2023-02-15T15:19:12;20.20;42.50
60909;DHT22;46780;48.128;-1.704;2023-02-15T15:22:01;19.90;43.70
60909;DHT22;46780;48.128;-1.704;2023-02-15T15:29:58;19.50;44.60
60909;DHT22;46780;48.128;-1.704;2023-02-15T15:32:26;19.30;44.30
60909;DHT22;46780;48.128;-1.704;2023-02-15T15:34:59;19.10;44.40
60909;DHT22;46780;48.128;-1.704;2023-02-15T15:37:35;19.10;44.90
60909;DHT22;46780;48.128;-1.704;2023-02-15T15:43:08;18.80;45.30
60909;DHT22;46780;48.128;-1.704;2023-02-15T15:45:51;18.70;45.80